Time;durP1;ratioP1;P1;durP2;ratioP2;P2;SDS_P1;SDS_P2;PMS_P1;PMS_P2;Temp;Humidity;BMP_temperature;BMP_pressure;BME280_temperature;BME280_humidity;BME280_pressure;Samples;Min_cycle;Max_cycle;Signal;HPM_P1;HPM_P2
2022/09/12 00:00:00;;;;;;;8.30;4.25;;;15.30;99.90;;;;;;5096964;28;20503;-84
2022/09/12 00:02:26;;;;;;;7.80;4.75;;;15.30;99.90;;;;;;5115567;28;20024;-83
2022/09/12 00:04:52;;;;;;;8.57;5.20;;;15.30;99.90;;;;;;5116424;28;20031;-82
2022/09/12 00:07:17;;;;;;;7.45;4.63;;;15.30;99.90;;;;;;5114613;28;20028;-84
2022/09/12 00:09:43;;;;;;;9.30;4.70;;;15.30;99.90;;;;;;5094980;28;20020;-84
2022/09/12 00:12:09;;;;;;;5.80;4.20;;;15.30;99.90;;;;;;5111932;28;20393;-84
2022/09/12 00:14:35;;;;;;;8.57;4.28;;;15.30;99.90;;;;;;5111086;28;20024;-84
2022/09/12 00:17:01;;;;;;;4.40;3.63;;;15.30;99.90;;;;;;5111491;28;20028;-85
2022/09/12 00:19:28;;;;;;;6.45;4.05;;;15.30;99.90;;;;;;5116448;28;20120;-84
2022/09/12 00:21:55;;;;;;;7.20;4.60;;;15.30;99.90;;;;;;5114147;28;20103;-84
2022/09/12 00:24:21;;;;;;;7.45;4.10;;;15.30;99.90;;;;;;5094082;28;20016;-83
2022/09/12 00:26:47;;;;;;;9.00;5.05;;;15.20;99.90;;;;;;5110167;28;20026;-83
2022/09/12 00:29:19;;;;;;;6.85;4.43;;;15.20;99.90;;;;;;5091622;28;20104;-83
2022/09/12 00:31:45;;;;;;;8.55;4.47;;;15.10;99.90;;;;;;5109337;28;20031;-83
2022/09/12 00:34:11;;;;;;;7.60;4.28;;;15.20;99.90;;;;;;5091928;28;20050;-84
2022/09/12 00:36:38;;;;;;;6.95;4.45;;;15.20;99.90;;;;;;5092144;28;20056;-83
2022/09/12 00:39:04;;;;;;;7.00;3.80;;;15.20;99.90;;;;;;5110408;28;20023;-84
2022/09/12 00:41:33;;;;;;;10.82;4.18;;;15.10;99.90;;;;;;5115266;28;20024;-84
2022/09/12 00:44:21;;;;;;;5.32;3.70;;;15.10;99.90;;;;;;5112439;28;20016;-84
2022/09/12 00:46:56;;;;;;;14.35;4.25;;;15.20;99.90;;;;;;5111086;28;20035;-85
2022/09/12 00:49:26;;;;;;;12.30;4.93;;;15.20;99.90;;;;;;5111882;28;20043;-84
2022/09/12 00:51:55;;;;;;;5.65;4.10;;;15.20;99.90;;;;;;5093400;28;20040;-84
2022/09/12 00:54:29;;;;;;;6.20;3.95;;;15.20;99.90;;;;;;5114857;28;20004;-84
2022/09/12 00:57:00;;;;;;;5.93;4.40;;;15.20;99.90;;;;;;5098731;28;20040;-83
2022/09/12 00:59:34;;;;;;;6.22;3.92;;;15.20;99.90;;;;;;5115884;28;20027;-83
2022/09/12 01:02:00;;;;;;;6.88;4.15;;;15.20;99.90;;;;;;5116138;28;20088;-83
2022/09/12 01:04:27;;;;;;;6.90;4.63;;;15.30;99.90;;;;;;5101072;28;20023;-84
2022/09/12 01:06:56;;;;;;;6.45;3.72;;;15.30;99.90;;;;;;5117869;28;20055;-81
2022/09/12 01:09:23;;;;;;;7.10;4.45;;;15.30;99.90;;;;;;5115117;28;20024;-83
2022/09/12 01:11:51;;;;;;;6.40;3.75;;;15.30;99.90;;;;;;5085982;28;20024;-84
2022/09/12 01:14:18;;;;;;;6.13;4.10;;;15.30;99.90;;;;;;5088073;28;20031;-83
2022/09/12 01:16:46;;;;;;;7.78;4.65;;;15.30;99.90;;;;;;5105020;28;20552;-83
2022/09/12 01:19:41;;;;;;;7.88;4.60;;;15.40;99.90;;;;;;5104002;28;20035;-83
2022/09/12 01:22:22;;;;;;;7.05;4.50;;;15.30;99.90;;;;;;5087433;28;20055;-83
2022/09/12 01:25:18;;;;;;;10.25;4.82;;;15.30;99.90;;;;;;5106167;28;20031;-83
2022/09/12 01:27:49;;;;;;;9.30;4.68;;;15.30;99.90;;;;;;5088469;28;20090;-83
2022/09/12 01:30:23;;;;;;;5.40;3.55;;;15.20;99.90;;;;;;5089025;28;20081;-82
2022/09/12 01:32:58;;;;;;;;;;;15.20;99.90;;;;;;5107947;28;20116;-83
2022/09/12 01:35:49;;;;;;;6.77;4.20;;;15.30;99.90;;;;;;5114655;28;19896;-83
2022/09/12 01:38:30;;;;;;;7.22;3.80;;;15.30;99.90;;;;;;5114854;28;20035;-84
2022/09/12 01:41:23;;;;;;;6.35;4.32;;;15.30;99.90;;;;;;5113773;28;20134;-83
2022/09/12 01:44:11;;;;;;;7.00;3.78;;;15.40;99.90;;;;;;5096207;28;20039;-84
2022/09/12 01:46:44;;;;;;;8.25;4.40;;;15.40;99.90;;;;;;5115816;28;20065;-83
2022/09/12 01:49:13;;;;;;;6.63;4.97;;;15.50;99.90;;;;;;5114091;28;20221;-83
2022/09/12 01:52:01;;;;;;;9.77;4.57;;;15.50;99.90;;;;;;5114013;28;20032;-83
2022/09/12 01:54:39;;;;;;;7.28;4.70;;;15.40;99.90;;;;;;5108124;28;20028;-83
2022/09/12 01:57:19;;;;;;;8.25;5.30;;;15.50;99.90;;;;;;5086086;28;20085;-84
2022/09/12 01:59:49;;;;;;;7.07;4.88;;;15.40;99.90;;;;;;5104329;28;20036;-84
2022/09/12 02:02:21;;;;;;;8.15;5.05;;;15.40;99.90;;;;;;5087518;28;20020;-85
2022/09/12 02:04:59;;;;;;;6.35;4.85;;;15.40;99.90;;;;;;5074226;28;20032;-84
2022/09/12 02:07:38;;;;;;;6.10;4.53;;;15.40;99.90;;;;;;5096252;28;20035;-84
2022/09/12 02:10:40;;;;;;;7.90;4.97;;;15.40;99.90;;;;;;5115860;28;20035;-83
2022/09/12 02:13:22;;;;;;;11.25;5.40;;;15.40;99.90;;;;;;5101032;28;20058;-82
2022/09/12 02:16:06;;;;;;;6.03;4.82;;;15.50;99.90;;;;;;5116164;28;20047;-83
2022/09/12 02:18:33;;;;;;;6.85;5.10;;;15.50;99.90;;;;;;5119543;27;20051;-84
2022/09/12 02:21:01;;;;;;;11.07;5.32;;;15.50;99.90;;;;;;5117800;28;20061;-83
2022/09/12 02:23:30;;;;;;;6.88;5.13;;;15.50;99.90;;;;;;5111935;28;20028;-83
2022/09/12 02:26:02;;;;;;;6.20;5.45;;;15.50;99.90;;;;;;5083651;27;20020;-83
2022/09/12 02:28:38;;;;;;;8.63;5.25;;;15.50;99.90;;;;;;5117530;28;20058;-84
2022/09/12 02:31:24;;;;;;;6.85;5.50;;;15.40;99.90;;;;;;5118970;28;20020;-84
2022/09/12 02:34:25;;;;;;;8.85;6.13;;;15.40;99.90;;;;;;5092350;28;20090;-84
2022/09/12 02:36:56;;;;;;;10.00;5.93;;;15.30;99.90;;;;;;5120453;28;20085;-84
2022/09/12 02:39:22;;;;;;;8.77;5.68;;;15.30;99.90;;;;;;5120136;28;20039;-84
2022/09/12 02:41:51;;;;;;;10.93;5.82;;;15.30;99.90;;;;;;5118703;28;20027;-83
2022/09/12 02:44:18;;;;;;;10.27;6.03;;;15.30;99.90;;;;;;5099917;28;20062;-83
2022/09/12 02:46:48;;;;;;;6.60;5.35;;;15.20;99.90;;;;;;5097034;28;20032;-84
2022/09/12 02:49:16;;;;;;;8.30;5.72;;;15.20;99.90;;;;;;5115589;28;20035;-84
2022/09/12 02:51:42;;;;;;;7.70;6.10;;;15.10;99.90;;;;;;5103793;27;20043;-84
2022/09/12 02:54:08;;;;;;;10.23;6.40;;;15.10;99.90;;;;;;5124264;27;20012;-84
2022/09/12 02:56:35;;;;;;;12.10;6.40;;;15.00;99.90;;;;;;5124306;27;20039;-83
2022/09/12 02:59:07;;;;;;;15.68;6.70;;;15.00;99.90;;;;;;5123919;27;20081;-84
2022/09/12 03:01:39;;;;;;;9.15;6.07;;;15.00;99.90;;;;;;5106925;28;20012;-84
2022/09/12 03:04:29;;;;;;;10.75;6.72;;;15.00;99.90;;;;;;5124370;27;20023;-82
2022/09/12 03:06:55;;;;;;;10.52;6.82;;;14.90;99.90;;;;;;5124130;27;20043;-83
2022/09/12 03:09:35;;;;;;;8.82;5.95;;;15.00;99.90;;;;;;5124150;27;20073;-82
2022/09/12 03:12:28;;;;;;;9.55;6.57;;;15.00;99.90;;;;;;5120497;27;20106;-84
2022/09/12 03:15:00;;;;;;;10.85;5.88;;;15.00;99.90;;;;;;5114743;28;20055;-83
2022/09/12 03:17:38;;;;;;;10.93;6.53;;;14.90;99.90;;;;;;5095765;28;20175;-83
2022/09/12 03:20:21;;;;;;;8.95;6.72;;;14.90;99.90;;;;;;5113731;28;20038;-83
2022/09/12 03:23:07;;;;;;;9.43;7.13;;;14.90;99.90;;;;;;5114747;28;20030;-84
2022/09/12 03:25:41;;;;;;;10.23;6.78;;;14.90;99.90;;;;;;5114864;28;20061;-84
2022/09/12 03:28:18;;;;;;;9.18;6.57;;;14.80;99.90;;;;;;5113880;28;20036;-83
2022/09/12 03:30:47;;;;;;;9.35;6.75;;;14.80;99.90;;;;;;5114201;28;20036;-84
2022/09/12 03:33:17;;;;;;;11.50;6.93;;;14.80;99.90;;;;;;5115340;28;20031;-84
2022/09/12 03:35:43;;;;;;;12.68;7.07;;;14.80;99.90;;;;;;5120733;28;20038;-84
2022/09/12 03:38:08;;;;;;;9.35;6.57;;;14.80;99.90;;;;;;5112814;28;20047;-83
2022/09/12 03:40:35;;;;;;;11.48;7.25;;;14.80;99.90;;;;;;5110918;28;20028;-83
2022/09/12 03:43:01;;;;;;;10.80;7.20;;;14.80;99.90;;;;;;5116495;28;20021;-84
2022/09/12 03:45:27;;;;;;;12.85;7.95;;;14.80;99.90;;;;;;5094158;28;20028;-84
2022/09/12 03:47:53;;;;;;;13.90;7.32;;;14.80;99.90;;;;;;5089932;28;20028;-84
2022/09/12 03:50:19;;;;;;;12.85;7.18;;;14.80;99.90;;;;;;5108813;28;20024;-83
2022/09/12 03:52:44;;;;;;;12.27;7.45;;;14.80;99.90;;;;;;5108103;28;20101;-84
2022/09/12 03:55:11;;;;;;;11.75;6.97;;;14.80;99.90;;;;;;5108331;28;20047;-84
2022/09/12 03:57:36;;;;;;;9.75;7.25;;;14.80;99.90;;;;;;5109773;28;20026;-83
2022/09/12 04:00:05;;;;;;;13.52;7.07;;;14.70;99.90;;;;;;5108648;28;20051;-84
2022/09/12 04:02:38;;;;;;;11.50;7.22;;;14.80;99.90;;;;;;5093263;28;20034;-83
2022/09/12 04:05:04;;;;;;;14.27;7.88;;;14.80;99.90;;;;;;5091128;28;20036;-85
2022/09/12 04:07:30;;;;;;;17.30;7.05;;;14.80;99.90;;;;;;5091530;28;20026;-85
2022/09/12 04:09:55;;;;;;;10.00;7.30;;;14.80;99.90;;;;;;5108059;28;20052;-84
2022/09/12 04:12:21;;;;;;;11.82;7.85;;;14.80;99.90;;;;;;5107983;28;20066;-83
2022/09/12 04:14:48;;;;;;;9.45;7.07;;;14.80;99.90;;;;;;5089398;28;20133;-85
2022/09/12 04:17:14;;;;;;;11.52;7.00;;;14.80;99.90;;;;;;5109688;28;20024;-87
2022/09/12 04:19:41;;;;;;;11.32;7.85;;;14.80;99.90;;;;;;5108519;28;20380;-87
2022/09/12 04:22:06;;;;;;;10.88;6.55;;;14.70;99.90;;;;;;5108682;28;20091;-87
2022/09/12 04:24:32;;;;;;;10.60;8.05;;;14.70;99.90;;;;;;5109359;28;20044;-85
2022/09/12 04:26:58;;;;;;;17.40;8.40;;;14.70;99.90;;;;;;5073470;28;20047;-86
2022/09/12 04:29:24;;;;;;;11.10;7.88;;;14.70;99.90;;;;;;5110381;28;20039;-86
2022/09/12 04:31:49;;;;;;;10.70;7.32;;;14.70;99.90;;;;;;5107212;28;20050;-82
2022/09/12 04:34:15;;;;;;;13.55;6.78;;;14.80;99.90;;;;;;5097834;28;20020;-84
2022/09/12 04:36:41;;;;;;;12.65;7.78;;;14.80;99.90;;;;;;5110662;28;20379;-86
2022/09/12 04:39:07;;;;;;;9.85;7.07;;;14.80;99.90;;;;;;5087447;28;20032;-88
2022/09/12 04:41:35;;;;;;;13.20;6.70;;;14.80;99.90;;;;;;5087024;28;20497;-84
2022/09/12 04:44:05;;;;;;;15.98;7.78;;;14.80;99.90;;;;;;5070051;28;20028;-84
2022/09/12 04:46:34;;;;;;;10.30;7.45;;;14.80;99.90;;;;;;5110484;28;20032;-82
2022/09/12 04:49:00;;;;;;;10.60;6.72;;;14.90;99.90;;;;;;5078933;28;20031;-84
2022/09/12 04:51:29;;;;;;;13.40;6.85;;;14.90;99.90;;;;;;5117045;28;20032;-83
2022/09/12 04:53:58;;;;;;;11.77;6.65;;;14.90;99.90;;;;;;5103721;28;20124;-85
2022/09/12 04:56:25;;;;;;;9.05;6.95;;;14.90;99.90;;;;;;5101918;28;20088;-85
2022/09/12 04:58:51;;;;;;;9.68;6.60;;;14.90;99.90;;;;;;5106829;28;20039;-84
2022/09/12 05:01:19;;;;;;;10.68;6.63;;;14.90;99.90;;;;;;5114107;28;20036;-84
2022/09/12 05:03:47;;;;;;;12.15;7.43;;;14.90;99.90;;;;;;5105838;28;20031;-84
2022/09/12 05:06:22;;;;;;;12.63;7.22;;;15.00;99.90;;;;;;5105785;28;20051;-83
2022/09/12 05:08:49;;;;;;;11.95;7.07;;;15.00;99.90;;;;;;5087748;28;20027;-83
2022/09/12 05:11:18;;;;;;;9.35;6.72;;;15.00;99.90;;;;;;5088013;28;20020;-84
2022/09/12 05:13:43;;;;;;;11.85;6.85;;;15.10;99.90;;;;;;5106838;28;20034;-84
2022/09/12 05:16:11;;;;;;;13.75;6.50;;;15.10;99.90;;;;;;5106649;28;20150;-83
2022/09/12 05:18:38;;;;;;;10.10;6.18;;;15.10;99.90;;;;;;5107422;28;20059;-84
2022/09/12 05:21:05;;;;;;;8.43;6.22;;;15.20;99.90;;;;;;5112321;22;20051;-81
2022/09/12 05:23:32;;;;;;;11.35;7.20;;;15.20;99.90;;;;;;5060075;28;20056;-81
2022/09/12 05:25:59;;;;;;;11.98;6.93;;;15.20;99.90;;;;;;5058969;28;20018;-82
2022/09/12 05:28:29;;;;;;;13.63;7.85;;;15.30;99.90;;;;;;5059144;28;20056;-81
2022/09/12 05:31:03;;;;;;;10.32;6.25;;;15.30;99.90;;;;;;5059274;28;20136;-80
2022/09/12 05:33:29;;;;;;;14.00;6.60;;;15.40;99.90;;;;;;5058954;28;20031;-83
2022/09/12 05:35:56;;;;;;;9.52;6.03;;;15.50;99.90;;;;;;5056969;28;20036;-79
2022/09/12 05:38:23;;;;;;;10.57;6.55;;;15.60;99.90;;;;;;5042642;28;20564;-80
2022/09/12 05:40:50;;;;;;;12.10;5.93;;;15.70;99.90;;;;;;5060203;28;20457;-81
2022/09/12 05:43:16;;;;;;;11.43;6.22;;;15.80;99.90;;;;;;5023959;28;20476;-81
2022/09/12 05:45:42;;;;;;;11.98;6.75;;;15.80;99.90;;;;;;5040473;28;20048;-81
2022/09/12 05:48:08;;;;;;;9.15;5.97;;;15.70;99.90;;;;;;5060587;28;20342;-81
2022/09/12 05:50:34;;;;;;;10.35;6.25;;;15.80;99.90;;;;;;5059055;28;20102;-80
2022/09/12 05:53:00;;;;;;;9.98;5.57;;;15.80;99.90;;;;;;5058532;28;20120;-80
2022/09/12 05:55:26;;;;;;;8.98;5.55;;;16.00;99.90;;;;;;5059068;28;20112;-81
2022/09/12 05:57:52;;;;;;;10.55;6.35;;;16.00;99.90;;;;;;5057702;28;20480;-84
2022/09/12 06:00:19;;;;;;;9.20;5.53;;;16.00;99.90;;;;;;5059909;28;20071;-80
2022/09/12 06:02:52;;;;;;;10.98;6.13;;;16.00;99.90;;;;;;5056864;28;20543;-78
2022/09/12 06:05:17;;;;;;;8.85;5.72;;;16.10;99.90;;;;;;5039076;28;20111;-78
2022/09/12 06:07:45;;;;;;;11.35;5.95;;;16.20;99.90;;;;;;5055469;28;20051;-78
2022/09/12 06:10:12;;;;;;;9.85;5.75;;;16.30;99.90;;;;;;5046936;28;20029;-78
2022/09/12 06:12:38;;;;;;;17.67;7.00;;;16.40;99.90;;;;;;5050975;28;20068;-78
2022/09/12 06:15:04;;;;;;;8.20;5.47;;;16.50;99.90;;;;;;5049488;28;20025;-78
2022/09/12 06:17:31;;;;;;;8.95;5.32;;;16.50;99.90;;;;;;5050101;28;20029;-79
2022/09/12 06:19:56;;;;;;;10.35;5.35;;;16.60;99.90;;;;;;5056598;28;20496;-78
2022/09/12 06:22:22;;;;;;;12.65;5.70;;;16.60;99.90;;;;;;5054458;28;20056;-80
2022/09/12 06:24:50;;;;;;;9.40;4.72;;;16.80;99.90;;;;;;5055277;28;20033;-77
2022/09/12 06:27:15;;;;;;;10.02;5.65;;;16.80;99.90;;;;;;5061120;28;20021;-79
2022/09/12 06:29:41;;;;;;;9.18;5.70;;;16.70;99.90;;;;;;5076922;28;20039;-79
2022/09/12 06:32:08;;;;;;;11.30;5.47;;;16.70;99.90;;;;;;5078494;28;20026;-78
2022/09/12 06:34:35;;;;;;;8.93;5.78;;;16.80;99.90;;;;;;5075644;28;20028;-77
2022/09/12 06:37:02;;;;;;;10.55;5.30;;;16.90;99.90;;;;;;5075996;28;20031;-80
2022/09/12 06:39:30;;;;;;;14.95;5.80;;;16.90;99.90;;;;;;5074762;28;20076;-79
2022/09/12 06:41:56;;;;;;;9.50;4.25;;;17.00;99.90;;;;;;5057672;28;20460;-79
2022/09/12 06:44:32;;;;;;;9.40;5.10;;;17.40;99.90;;;;;;5073334;28;20024;-79
2022/09/12 06:46:58;;;;;;;6.68;4.70;;;17.70;99.90;;;;;;5074339;28;20425;-79
2022/09/12 06:49:23;;;;;;;10.27;4.28;;;17.80;99.90;;;;;;5074525;28;20020;-78
2022/09/12 06:51:49;;;;;;;21.58;5.20;;;18.20;99.90;;;;;;5078657;28;20067;-78
2022/09/12 06:54:18;;;;;;;10.00;5.93;;;18.90;99.90;;;;;;5039989;28;20051;-78
2022/09/12 06:56:44;;;;;;;8.80;4.47;;;19.20;99.90;;;;;;5039982;28;20079;-78
2022/09/12 06:59:10;;;;;;;9.68;4.38;;;19.30;99.90;;;;;;5044045;28;20124;-79
2022/09/12 07:01:36;;;;;;;9.18;4.50;;;19.30;99.90;;;;;;5059130;28;20025;-79
2022/09/12 07:04:03;;;;;;;9.50;4.28;;;19.30;99.90;;;;;;5063915;28;20029;-79
2022/09/12 07:06:34;;;;;;;9.77;4.80;;;19.10;99.90;;;;;;5071874;28;20033;-79
2022/09/12 07:09:02;;;;;;;9.05;4.25;;;19.20;99.90;;;;;;5050101;28;20033;-78
2022/09/12 07:11:30;;;;;;;11.88;4.72;;;19.10;99.90;;;;;;5069806;28;20503;-78
2022/09/12 07:13:58;;;;;;;6.65;4.78;;;18.90;99.90;;;;;;5045004;28;20401;-78
2022/09/12 07:16:24;;;;;;;6.35;4.78;;;18.80;99.90;;;;;;5063913;28;20548;-78
2022/09/12 07:18:55;;;;;;;8.13;4.72;;;18.40;99.90;;;;;;5043146;28;20033;-79
2022/09/12 07:21:22;;;;;;;11.45;5.22;;;18.30;99.90;;;;;;5061769;28;20032;-79
2022/09/12 07:23:50;;;;;;;8.95;5.00;;;18.40;99.90;;;;;;5058917;28;20025;-78
2022/09/12 07:26:16;;;;;;;10.38;5.35;;;18.30;99.90;;;;;;5058199;28;20031;-78
2022/09/12 07:28:43;;;;;;;12.65;5.05;;;18.30;99.90;;;;;;5058385;28;20083;-78
2022/09/12 07:31:14;;;;;;;11.70;5.25;;;18.40;99.90;;;;;;5058586;28;20380;-78
2022/09/12 07:33:41;;;;;;;7.93;5.47;;;18.60;99.90;;;;;;5041966;28;20040;-78
2022/09/12 07:36:12;;;;;;;11.25;5.70;;;18.70;99.90;;;;;;5040566;28;20409;-79
2022/09/12 07:38:39;;;;;;;8.63;5.65;;;18.80;99.90;;;;;;5058155;28;20037;-79
2022/09/12 07:41:16;;;;;;;7.85;5.30;;;18.90;99.90;;;;;;5059307;28;20400;-78
2022/09/12 07:43:41;;;;;;;10.15;5.60;;;18.90;99.90;;;;;;5058908;28;20028;-79
2022/09/12 07:46:08;;;;;;;6.68;5.20;;;18.80;99.90;;;;;;5059323;28;20021;-78
2022/09/12 07:48:34;;;;;;;9.35;5.45;;;18.70;99.90;;;;;;5058556;28;20029;-78
2022/09/12 07:51:02;;;;;;;7.93;5.53;;;18.80;99.90;;;;;;5059345;28;20021;-79
2022/09/12 07:53:34;;;;;;;7.07;5.20;;;18.90;99.90;;;;;;5059258;28;20037;-78
2022/09/12 07:56:01;;;;;;;8.05;4.63;;;19.10;99.90;;;;;;5054465;28;20040;-79
2022/09/12 07:58:29;;;;;;;6.65;4.95;;;19.20;99.90;;;;;;5059330;28;20021;-78
2022/09/12 08:01:04;;;;;;;9.90;6.15;;;19.40;99.90;;;;;;5076767;28;20024;-77
2022/09/12 08:03:33;;;;;;;9.10;4.90;;;19.70;99.90;;;;;;5076051;28;20032;-78
2022/09/12 08:06:02;;;;;;;10.98;4.82;;;20.00;99.90;;;;;;5072356;28;20078;-79
2022/09/12 08:08:28;;;;;;;8.60;4.95;;;20.00;99.90;;;;;;5076727;28;20013;-79
2022/09/12 08:11:02;;;;;;;6.85;4.65;;;20.20;99.90;;;;;;5077602;28;20668;-78
2022/09/12 08:13:28;;;;;;;8.38;4.68;;;20.40;99.90;;;;;;5058504;28;20583;-78
2022/09/12 08:15:58;;;;;;;14.63;5.45;;;20.20;99.90;;;;;;5062863;28;20021;-78
2022/09/12 08:18:25;;;;;;;8.30;4.35;;;20.40;99.90;;;;;;5044363;28;20039;-78
2022/09/12 08:21:15;;;;;;;11.68;4.82;;;20.60;99.90;;;;;;5058966;28;20033;-77
2022/09/12 08:23:42;;;;;;;8.35;4.47;;;20.80;99.90;;;;;;5056553;28;20036;-78
2022/09/12 08:26:09;;;;;;;8.75;4.68;;;21.00;99.90;;;;;;5058874;28;20025;-79
2022/09/12 08:28:36;;;;;;;5.80;4.03;;;21.00;99.90;;;;;;5057105;28;20029;-79
2022/09/12 08:31:04;;;;;;;9.60;4.80;;;21.10;99.90;;;;;;5060738;28;20044;-78
2022/09/12 08:33:33;;;;;;;6.13;4.47;;;21.20;99.90;;;;;;5077714;28;20047;-78
2022/09/12 08:36:14;;;;;;;7.95;4.55;;;21.30;99.90;;;;;;5077774;28;20092;-80
2022/09/12 08:38:43;;;;;;;8.68;4.22;;;21.10;99.90;;;;;;5076485;28;20036;-78
2022/09/12 08:41:27;;;;;;;5.60;4.00;;;21.00;99.90;;;;;;5075510;28;20111;-79
2022/09/12 08:44:08;;;;;;;9.80;3.95;;;21.00;99.90;;;;;;5076035;28;20029;-77
2022/09/12 08:47:10;;;;;;;7.13;4.18;;;21.20;99.90;;;;;;5059494;28;20029;-79
2022/09/12 08:49:52;;;;;;;7.03;4.03;;;21.20;99.90;;;;;;5056353;28;20040;-80
2022/09/12 08:52:43;;;;;;;7.90;3.95;;;21.20;99.90;;;;;;5055289;28;20213;-80
2022/09/12 08:55:29;;;;;;;6.72;4.05;;;21.10;99.90;;;;;;5056833;28;20170;-78
2022/09/12 08:57:56;;;;;;;10.85;3.85;;;21.40;99.90;;;;;;5038935;28;20417;-77
2022/09/12 09:00:22;;;;;;;8.25;4.00;;;21.70;99.90;;;;;;5054661;28;20029;-77
2022/09/12 09:02:54;;;;;;;5.88;3.83;;;21.90;99.90;;;;;;5039104;28;20021;-79
2022/09/12 09:05:29;;;;;;;9.68;5.07;;;21.90;99.90;;;;;;5056407;28;20033;-78
2022/09/12 09:08:13;;;;;;;6.82;4.15;;;22.10;99.90;;;;;;5037563;28;20396;-77
2022/09/12 09:11:06;;;;;;;7.15;4.00;;;22.40;99.90;;;;;;5070788;28;20025;-78
2022/09/12 09:16:57;;;;;;;6.30;3.50;;;22.60;99.90;;;;;;5076432;28;20025;-78
2022/09/12 09:19:31;;;;;;;4.80;3.20;;;22.70;99.90;;;;;;5071139;28;20036;-78
2022/09/12 09:22:12;;;;;;;6.30;3.55;;;23.80;99.90;;;;;;5057144;28;20505;-78
2022/09/12 09:25:01;;;;;;;5.28;3.53;;;24.30;99.90;;;;;;5040982;28;20054;-79
2022/09/12 09:27:38;;;;;;;7.95;3.67;;;24.30;99.90;;;;;;5042792;28;20049;-79
2022/09/12 09:30:05;;;;;;;5.47;3.00;;;24.00;99.90;;;;;;5063081;28;20025;-78
2022/09/12 09:32:39;;;;;;;8.43;3.85;;;23.60;99.90;;;;;;5057747;28;20477;-79
2022/09/12 09:35:24;;;;;;;5.95;3.15;;;23.80;99.90;;;;;;5041085;28;20107;-78
2022/09/12 09:37:52;;;;;;;5.20;3.78;;;24.80;99.90;;;;;;5040544;28;20116;-79
2022/09/12 09:40:50;;;;;;;6.10;3.33;;;24.60;99.90;;;;;;5057229;28;20033;-79
2022/09/12 09:43:27;;;;;;;6.38;3.53;;;24.80;99.20;;;;;;5018176;28;20052;-78
2022/09/12 09:45:55;;;;;;;6.55;3.30;;;24.40;98.80;;;;;;5039435;28;20051;-78
2022/09/12 09:48:35;;;;;;;10.65;3.40;;;24.20;99.70;;;;;;5056334;28;20021;-80
2022/09/12 09:51:05;;;;;;;6.00;3.55;;;24.50;99.20;;;;;;5056046;28;20029;-80
2022/09/12 09:53:56;;;;;;;6.20;3.83;;;24.50;99.20;;;;;;5058995;28;20029;-80
2022/09/12 09:56:41;;;;;;;6.10;3.38;;;24.00;99.50;;;;;;5061140;28;20044;-80
2022/09/12 09:59:27;;;;;;;4.88;3.20;;;23.90;99.60;;;;;;5058936;28;20480;-82
2022/09/12 10:02:02;;;;;;;5.07;3.10;;;23.90;99.10;;;;;;5057181;28;20039;-80
2022/09/12 10:04:39;;;;;;;7.40;4.10;;;23.80;99.30;;;;;;5040352;28;20021;-79
2022/09/12 10:07:05;;;;;;;7.57;3.42;;;23.20;99.80;;;;;;5057633;28;20037;-80
2022/09/12 10:09:34;;;;;;;7.43;3.55;;;23.10;99.90;;;;;;5039984;28;20033;-80
2022/09/12 10:12:21;;;;;;;7.30;3.50;;;23.10;99.80;;;;;;5056498;28;20037;-79
2022/09/12 10:14:58;;;;;;;4.53;2.95;;;23.20;99.70;;;;;;5056999;28;20033;-79
2022/09/12 10:17:31;;;;;;;5.65;3.28;;;23.40;99.90;;;;;;5039271;28;20454;-78
2022/09/12 10:19:57;;;;;;;5.57;3.30;;;23.80;99.30;;;;;;5038088;28;20036;-79
2022/09/12 10:22:27;;;;;;;5.38;3.22;;;24.40;98.30;;;;;;5077442;28;20025;-79
2022/09/12 10:24:57;;;;;;;5.10;3.40;;;24.50;97.90;;;;;;5085058;28;20032;-80
2022/09/12 10:27:31;;;;;;;8.13;3.33;;;24.70;97.40;;;;;;5072760;28;20465;-79
2022/09/12 10:30:16;;;;;;;5.25;3.50;;;24.60;97.50;;;;;;5060497;28;20033;-78
2022/09/12 10:32:49;;;;;;;3.97;3.00;;;24.30;97.40;;;;;;5059505;28;20025;-80
2022/09/12 10:35:20;;;;;;;4.68;3.38;;;24.30;97.30;;;;;;5073312;28;20037;-79
2022/09/12 10:38:12;;;;;;;4.78;3.08;;;25.50;96.30;;;;;;5030231;28;20101;-81
2022/09/12 10:40:41;;;;;;;5.00;3.15;;;27.80;93.90;;;;;;5064050;28;20049;-81
2022/09/12 10:43:27;;;;;;;4.85;2.90;;;30.00;90.60;;;;;;5063850;28;20427;-83
2022/09/12 10:46:16;;;;;;;6.57;2.92;;;30.50;87.90;;;;;;5063979;28;20032;-81
2022/09/12 10:48:44;;;;;;;6.38;2.95;;;30.40;86.40;;;;;;5062307;28;20047;-79
2022/09/12 10:51:27;;;;;;;4.15;2.42;;;29.90;86.10;;;;;;5045443;28;20024;-81
2022/09/12 10:54:02;;;;;;;4.68;2.90;;;30.00;84.10;;;;;;5009398;28;20034;-80
2022/09/12 10:56:31;;;;;;;4.13;3.08;;;29.40;84.70;;;;;;5042616;28;20040;-81
2022/09/12 10:59:30;;;;;;;5.75;2.90;;;29.30;84.90;;;;;;5043398;28;20048;-80
2022/09/12 11:02:24;;;;;;;7.18;2.88;;;29.40;84.50;;;;;;5043835;28;20172;-80
2022/09/12 11:04:52;;;;;;;3.20;2.40;;;31.50;81.50;;;;;;5050773;28;20017;-79
2022/09/12 11:08:06;;;;;;;5.30;2.80;;;31.70;80.40;;;;;;5064932;28;20047;-79
2022/09/12 11:10:55;;;;;;;3.33;2.50;;;30.60;80.80;;;;;;4983381;28;20042;-81
2022/09/12 11:13:40;;;;;;;3.47;2.80;;;30.80;80.80;;;;;;4976500;28;20094;-79
2022/09/12 11:16:43;;;;;;;3.55;2.60;;;30.80;79.10;;;;;;5045094;28;20075;-78
2022/09/12 11:19:28;;;;;;;3.88;2.60;;;31.50;77.70;;;;;;5083949;28;20043;-80
2022/09/12 11:22:24;;;;;;;4.70;3.20;;;30.40;77.00;;;;;;5107770;22;20040;-89
2022/09/12 11:25:28;;;;;;;3.35;2.97;;;29.20;80.80;;;;;;5081450;28;20036;-87
2022/09/12 11:28:28;;;;;;;4.50;3.13;;;28.00;83.00;;;;;;5078446;28;20017;-87
2022/09/12 11:31:12;;;;;;;6.90;3.30;;;27.10;86.30;;;;;;5077789;28;20053;-87
2022/09/12 11:33:44;;;;;;;5.07;3.30;;;26.50;88.10;;;;;;5045996;28;20025;-86
2022/09/12 11:36:25;;;;;;;4.88;3.03;;;26.10;88.50;;;;;;5079554;28;20037;-87
2022/09/12 11:39:00;;;;;;;3.40;2.95;;;25.90;87.90;;;;;;5062060;28;20126;-85
2022/09/12 11:41:30;;;;;;;5.07;3.30;;;26.70;86.40;;;;;;5062326;28;20040;-88
2022/09/12 11:44:10;;;;;;;7.40;3.17;;;26.70;87.00;;;;;;5079656;28;20044;-86
2022/09/12 11:46:41;;;;;;;5.90;3.38;;;26.30;87.10;;;;;;5061640;28;20013;-85
2022/09/12 11:49:13;;;;;;;6.55;3.00;;;25.80;87.40;;;;;;5076902;28;20025;-89
2022/09/12 11:52:01;;;;;;;5.93;2.92;;;25.10;87.40;;;;;;5057574;28;20044;-88
2022/09/12 11:54:51;;;;;;;8.43;3.30;;;25.00;88.30;;;;;;5053523;28;20033;-87
2022/09/12 11:57:28;;;;;;;7.28;3.33;;;25.10;88.90;;;;;;5037496;28;20067;-88
2022/09/12 12:00:14;;;;;;;3.92;2.67;;;25.20;88.60;;;;;;5079273;28;20028;-84
2022/09/12 12:02:51;;;;;;;3.20;2.63;;;25.40;87.80;;;;;;5074762;28;20065;-88
2022/09/12 12:05:29;;;;;;;4.13;2.25;;;27.20;85.50;;;;;;5053937;28;20043;-86
2022/09/12 12:07:57;;;;;;;4.43;2.75;;;29.50;81.50;;;;;;5053127;28;20033;-87
2022/09/12 12:10:40;;;;;;;3.35;2.20;;;31.80;77.90;;;;;;5039977;28;20074;-87
2022/09/12 12:13:31;;;;;;;2.97;2.40;;;33.80;73.60;;;;;;5057451;28;20060;-87
2022/09/12 12:16:13;;;;;;;2.78;2.20;;;34.60;70.40;;;;;;5060194;28;20040;-86
2022/09/12 12:18:41;;;;;;;5.30;2.65;;;35.40;67.60;;;;;;5041159;28;20060;-86
2022/09/12 12:21:49;;;;;;;;;;;;;;;;;;;;;
2022/09/12 12:24:24;;;;;;;3.53;2.17;;;36.50;64.50;;;;;;5060017;28;20096;-87
2022/09/12 12:26:57;;;;;;;4.53;2.63;;;36.00;64.00;;;;;;5042835;28;20488;-88
2022/09/12 12:29:41;;;;;;;3.05;2.10;;;36.30;63.90;;;;;;5065498;28;20029;-88
2022/09/12 12:32:06;;;;;;;4.38;2.40;;;36.40;62.10;;;;;;5069348;28;20025;-87
2022/09/12 12:34:33;;;;;;;3.72;2.38;;;34.70;62.30;;;;;;5032937;28;20120;-87
2022/09/12 12:37:24;;;;;;;3.05;2.60;;;32.60;63.40;;;;;;5075732;28;20044;-87
2022/09/12 12:39:59;;;;;;;4.28;2.55;;;31.10;66.10;;;;;;5046401;28;20029;-87
2022/09/12 12:42:34;;;;;;;4.50;2.78;;;29.40;68.70;;;;;;5048667;28;20108;-86
2022/09/12 12:45:23;;;;;;;4.63;2.80;;;27.90;72.10;;;;;;5039358;28;20025;-86
2022/09/12 12:47:51;;;;;;;3.80;2.80;;;27.40;73.80;;;;;;5053217;28;20208;-85
2022/09/12 12:50:20;;;;;;;4.25;2.95;;;28.20;73.20;;;;;;5070268;28;20033;-87
2022/09/12 12:52:46;;;;;;;7.90;3.40;;;29.50;72.10;;;;;;5047206;28;20025;-83
2022/09/12 12:55:22;;;;;;;3.95;2.58;;;30.40;71.00;;;;;;5076020;28;20025;-85
2022/09/12 12:57:50;;;;;;;4.55;2.60;;;31.10;70.30;;;;;;5061161;28;20045;-83
2022/09/12 13:00:26;;;;;;;8.75;2.67;;;31.80;68.70;;;;;;5077998;28;20032;-85
2022/09/12 13:02:58;;;;;;;4.30;2.55;;;32.10;68.00;;;;;;5077181;28;20027;-87
2022/09/12 13:05:28;;;;;;;3.38;2.50;;;33.30;67.40;;;;;;5076947;28;20035;-84
2022/09/12 13:08:05;;;;;;;4.05;2.28;;;34.20;65.90;;;;;;5077641;28;20005;-85
2022/09/12 13:10:31;;;;;;;3.85;2.30;;;34.90;64.70;;;;;;5077135;28;20033;-84
2022/09/12 13:13:02;;;;;;;2.72;2.20;;;35.70;63.50;;;;;;5076882;28;20034;-83
2022/09/12 13:15:37;;;;;;;3.60;2.00;;;36.70;62.40;;;;;;5060025;28;20037;-83
2022/09/12 13:18:29;;;;;;;3.00;2.15;;;36.50;58.60;;;;;;5069154;28;20049;-87